createdAt,value
2022-10-17T00:02:24.673Z,101742.50
2022-10-17T00:04:51.460Z,101744.22
2022-10-17T00:07:18.266Z,101737.38
2022-10-17T00:09:45.030Z,101743.09
2022-10-17T00:12:11.867Z,101738.47
2022-10-17T00:14:39.084Z,101741.22
2022-10-17T00:17:06.072Z,101743.13
2022-10-17T00:19:32.834Z,101744.75
2022-10-17T00:21:59.622Z,101748.78
2022-10-17T00:24:26.402Z,101746.03
2022-10-17T00:26:53.222Z,101752.44
2022-10-17T00:29:20.131Z,101756.69
2022-10-17T00:31:48.026Z,101751.63
2022-10-17T00:34:14.971Z,101754.19
2022-10-17T00:36:41.781Z,101737.13
2022-10-17T00:39:09.549Z,101728.72
2022-10-17T00:41:36.392Z,101715.50
2022-10-17T00:44:27.097Z,101726.56
2022-10-17T00:46:54.110Z,101716.50
2022-10-17T00:49:23.385Z,101709.38
2022-10-17T00:53:31.315Z,101715.16
2022-10-17T00:56:01.908Z,101732.63
2022-10-17T00:58:28.875Z,101720.13
2022-10-17T01:00:55.638Z,101721.34
2022-10-17T01:03:23.113Z,101709.88
2022-10-17T01:05:50.694Z,101701.44
2022-10-17T01:08:18.004Z,101706.28
2022-10-17T01:11:12.283Z,101702.19
2022-10-17T01:14:00.556Z,101700.19
2022-10-17T01:16:36.391Z,101703.59
2022-10-17T01:19:27.960Z,101698.38
2022-10-17T01:22:01.749Z,101697.97
2022-10-17T01:24:49.263Z,101690.53
2022-10-17T01:27:35.534Z,101688.47
2022-10-17T01:30:12.364Z,101694.47
2022-10-17T01:32:47.711Z,101690.25
2022-10-17T01:35:23.512Z,101684.06
2022-10-17T01:38:06.670Z,101677.56
2022-10-17T01:40:58.665Z,101683.59
2022-10-17T01:43:40.456Z,101680.25
2022-10-17T01:46:18.272Z,101672.94
2022-10-17T01:48:46.627Z,101672.53
2022-10-17T01:51:18.844Z,101666.06
2022-10-17T01:54:02.286Z,101660.81
2022-10-17T01:56:33.126Z,101662.34
2022-10-17T01:59:22.417Z,101647.31
2022-10-17T02:01:53.186Z,101640.47
2022-10-17T02:04:21.272Z,101634.06
2022-10-17T02:06:48.151Z,101629.56
2022-10-17T02:09:19.991Z,101627.41
2022-10-17T02:12:09.783Z,101621.72
2022-10-17T02:15:00.963Z,101618.56
2022-10-17T02:17:49.677Z,101598.72
2022-10-17T02:20:47.473Z,101594.63
2022-10-17T02:23:27.926Z,101596.28
2022-10-17T02:26:14.819Z,101591.00
2022-10-17T02:28:52.968Z,101581.72
2022-10-17T02:31:29.106Z,101571.94
2022-10-17T02:34:01.217Z,101570.72
2022-10-17T02:36:39.076Z,101571.63
2022-10-17T02:39:08.255Z,101567.81
2022-10-17T02:41:38.301Z,101567.72
2022-10-17T02:44:06.833Z,101575.38
2022-10-17T02:46:35.625Z,101584.59
2022-10-17T02:49:26.018Z,101580.94
2022-10-17T02:51:59.467Z,101578.56
2022-10-17T02:54:45.205Z,101572.81
2022-10-17T02:57:21.647Z,101567.16
2022-10-17T02:59:50.281Z,101564.63
2022-10-17T03:02:17.970Z,101561.88
2022-10-17T03:04:46.572Z,101559.25
2022-10-17T03:07:13.579Z,101554.38
2022-10-17T03:09:40.416Z,101550.91
2022-10-17T03:12:07.506Z,101547.81
2022-10-17T03:14:35.258Z,101548.00
2022-10-17T03:17:03.651Z,101553.53
2022-10-17T03:19:31.241Z,101538.25
2022-10-17T03:21:58.129Z,101546.72
2022-10-17T03:24:25.042Z,101546.94
2022-10-17T03:26:52.012Z,101545.91
2022-10-17T03:29:18.989Z,101549.59
2022-10-17T03:31:47.222Z,101537.28
2022-10-17T03:34:16.784Z,101534.78
2022-10-17T03:36:43.809Z,101526.06
2022-10-17T03:39:11.015Z,101522.00
2022-10-17T03:41:38.171Z,101519.41
2022-10-17T03:44:05.293Z,101516.69
2022-10-17T03:46:32.151Z,101507.25
2022-10-17T03:49:00.631Z,101513.47
2022-10-17T03:51:27.768Z,101504.34
2022-10-17T03:54:01.544Z,101502.38
2022-10-17T03:56:28.613Z,101506.69
2022-10-17T03:59:04.357Z,101504.69
2022-10-17T04:01:35.235Z,101499.41
2022-10-17T04:04:02.153Z,101514.72
2022-10-17T04:06:32.354Z,101513.13
2022-10-17T04:09:00.389Z,101507.25
2022-10-17T04:11:34.533Z,101509.03
2022-10-17T04:14:02.638Z,101513.84
2022-10-17T04:16:30.358Z,101523.69
2022-10-17T04:19:03.207Z,101511.75
2022-10-17T04:21:39.873Z,101492.00
2022-10-17T04:24:11.755Z,101498.38
2022-10-17T04:27:04.599Z,101506.13
2022-10-17T04:29:34.108Z,101502.69
2022-10-17T04:32:06.689Z,101497.50
2022-10-17T04:34:43.386Z,101511.31
2022-10-17T04:37:10.547Z,101503.69
2022-10-17T04:39:37.839Z,101491.63
2022-10-17T04:42:05.294Z,101496.66
2022-10-17T04:44:33.656Z,101500.59
2022-10-17T04:47:01.331Z,101503.19
2022-10-17T04:49:28.668Z,101498.78
2022-10-17T04:52:04.111Z,101508.69
2022-10-17T04:54:37.418Z,101510.88
2022-10-17T04:57:09.747Z,101512.25
2022-10-17T04:59:37.040Z,101500.50
2022-10-17T05:02:15.271Z,101510.28
2022-10-17T05:04:42.221Z,101510.00
2022-10-17T05:07:10.637Z,101514.00
2022-10-17T05:09:46.098Z,101502.63
2022-10-17T05:12:13.595Z,101503.38
2022-10-17T05:14:44.161Z,101496.34
2022-10-17T05:17:11.135Z,101488.94
2022-10-17T05:19:38.883Z,101484.53
2022-10-17T05:22:07.171Z,101483.16
2022-10-17T05:24:33.977Z,101476.94
2022-10-17T05:27:00.875Z,101470.44
2022-10-17T05:29:28.417Z,101487.81
2022-10-17T05:32:04.358Z,101488.47
2022-10-17T05:34:31.156Z,101488.50
2022-10-17T05:36:58.137Z,101495.16
2022-10-17T05:39:24.995Z,101499.22
2022-10-17T05:41:52.724Z,101480.47
2022-10-17T05:44:19.660Z,101465.63
2022-10-17T05:46:53.039Z,101484.78
2022-10-17T05:49:32.609Z,101475.31
2022-10-17T05:52:07.380Z,101466.09
2022-10-17T05:54:44.252Z,101472.19
2022-10-17T05:57:11.945Z,101473.06
2022-10-17T05:59:40.365Z,101472.34
2022-10-17T06:02:13.123Z,101466.69
2022-10-17T06:04:45.558Z,101469.38
2022-10-17T06:07:13.680Z,101469.47
2022-10-17T06:09:42.948Z,101479.69
2022-10-17T06:12:10.376Z,101481.03
2022-10-17T06:14:37.260Z,101465.72
2022-10-17T06:17:06.230Z,101465.00
2022-10-17T06:19:33.060Z,101483.97
2022-10-17T06:21:59.922Z,101480.81
2022-10-17T06:24:28.141Z,101488.41
2022-10-17T06:26:55.060Z,101494.28
2022-10-17T06:29:22.546Z,101485.56
2022-10-17T06:31:51.881Z,101500.88
2022-10-17T06:34:19.833Z,101500.47
2022-10-17T06:36:47.207Z,101506.69
2022-10-17T06:39:14.646Z,101504.59
2022-10-17T06:41:47.339Z,101503.94
2022-10-17T06:44:18.218Z,101501.53
2022-10-17T06:47:03.562Z,101518.78
2022-10-17T06:49:34.239Z,101525.19
2022-10-17T06:52:17.537Z,101532.69
2022-10-17T06:55:05.585Z,101531.50
2022-10-17T06:57:51.798Z,101540.72
2022-10-17T07:00:42.074Z,101546.53
2022-10-17T07:03:11.159Z,101548.44
2022-10-17T07:05:38.466Z,101548.53
2022-10-17T07:08:05.691Z,101535.97
2022-10-17T07:10:38.139Z,101522.97
2022-10-17T07:13:07.054Z,101529.28
2022-10-17T07:15:37.213Z,101526.81
2022-10-17T07:18:04.786Z,101522.63
2022-10-17T07:20:32.110Z,101537.31
2022-10-17T07:22:58.902Z,101541.28
2022-10-17T07:25:26.089Z,101528.09
2022-10-17T07:27:57.481Z,101527.03
2022-10-17T07:30:24.941Z,101532.38
2022-10-17T07:33:03.828Z,101542.44
2022-10-17T07:35:31.375Z,101542.00
2022-10-17T07:37:58.135Z,101549.88
2022-10-17T07:40:25.146Z,101551.34
2022-10-17T07:42:52.709Z,101554.78
2022-10-17T07:45:20.764Z,101552.06
2022-10-17T07:47:47.825Z,101544.66
2022-10-17T07:50:16.032Z,101534.81
2022-10-17T07:52:43.312Z,101534.88
2022-10-17T07:55:10.168Z,101536.78
2022-10-17T07:57:37.006Z,101546.81
2022-10-17T08:00:04.156Z,101544.91
2022-10-17T08:02:39.731Z,101548.56
2022-10-17T08:05:09.366Z,101549.78
2022-10-17T08:07:36.519Z,101549.66
2022-10-17T08:10:04.183Z,101562.91
2022-10-17T08:12:34.304Z,101563.59
2022-10-17T08:15:01.859Z,101576.38
2022-10-17T08:17:28.808Z,101568.13
2022-10-17T08:19:55.561Z,101572.81
2022-10-17T08:22:22.878Z,101576.50
2022-10-17T08:24:49.640Z,101564.78
2022-10-17T08:27:21.518Z,101571.16
2022-10-17T08:29:48.851Z,101569.47
2022-10-17T08:32:15.755Z,101565.66
2022-10-17T08:34:42.618Z,101568.44
2022-10-17T08:39:42.112Z,101558.81
2022-10-17T08:42:08.843Z,101558.91
2022-10-17T08:45:03.486Z,101563.19
2022-10-17T08:47:36.639Z,101559.16
2022-10-17T08:50:07.812Z,101557.25
2022-10-17T08:52:54.175Z,101572.69
2022-10-17T08:55:48.881Z,101566.69
2022-10-17T08:58:20.198Z,101569.53
2022-10-17T09:01:13.735Z,101580.63
2022-10-17T09:04:18.197Z,101581.19
2022-10-17T09:06:50.304Z,101587.16
2022-10-17T09:09:55.175Z,101601.13
2022-10-17T09:12:42.389Z,101626.75
2022-10-17T09:15:40.145Z,101613.16
2022-10-17T09:18:09.887Z,101634.59
2022-10-17T09:21:25.232Z,101638.78
2022-10-17T09:24:03.799Z,101646.13
2022-10-17T09:26:36.960Z,101630.41
2022-10-17T09:29:16.912Z,101633.13
2022-10-17T09:32:00.352Z,101690.03
2022-10-17T09:34:29.199Z,101724.94
2022-10-17T09:36:58.718Z,101707.31
2022-10-17T09:39:26.708Z,101715.56
2022-10-17T09:41:58.901Z,101732.75
2022-10-17T09:44:36.812Z,101737.38
2022-10-17T09:47:34.619Z,101742.09
2022-10-17T09:50:02.150Z,101732.44
2022-10-17T09:52:36.749Z,101738.63
2022-10-17T09:55:39.050Z,101743.47
2022-10-17T09:58:07.658Z,101743.88
2022-10-17T10:00:38.145Z,101745.31
2022-10-17T10:03:14.851Z,101738.91
2022-10-17T10:05:43.419Z,101734.47
2022-10-17T10:08:16.467Z,101742.72
2022-10-17T10:10:44.714Z,101748.28
2022-10-17T10:13:14.115Z,101744.41
2022-10-17T10:15:45.894Z,101742.84
2022-10-17T10:18:24.984Z,101732.44
2022-10-17T10:21:16.906Z,101744.41
2022-10-17T10:23:45.423Z,101744.41
2022-10-17T10:26:27.434Z,101736.94
2022-10-17T10:29:24.971Z,101752.97
2022-10-17T10:31:53.461Z,101752.75
2022-10-17T10:34:28.829Z,101760.50
2022-10-17T10:36:55.722Z,101756.41
2022-10-17T10:39:34.863Z,101737.22
2022-10-17T10:42:05.735Z,101740.06
2022-10-17T10:44:34.329Z,101748.00
2022-10-17T10:47:20.486Z,101739.72
2022-10-17T10:49:47.829Z,101723.00
2022-10-17T10:52:47.780Z,101714.34
2022-10-17T10:55:40.298Z,101718.28
2022-10-17T10:58:22.555Z,101722.03
2022-10-17T11:00:50.870Z,101724.41
2022-10-17T11:03:29.176Z,101716.47
2022-10-17T11:06:06.212Z,101726.47
2022-10-17T11:08:35.545Z,101721.78
2022-10-17T11:11:13.828Z,101709.81
2022-10-17T11:13:48.574Z,101709.69
2022-10-17T11:16:31.301Z,101704.72
2022-10-17T11:19:21.922Z,101713.53
2022-10-17T11:22:15.004Z,101704.34
2022-10-17T11:24:57.157Z,101708.97
2022-10-17T11:27:25.970Z,101721.69
2022-10-17T11:29:52.850Z,101737.28
2022-10-17T11:32:21.427Z,101757.97
2022-10-17T11:35:01.950Z,101762.69
2022-10-17T11:37:44.174Z,101769.41
2022-10-17T11:40:24.400Z,101761.53
2022-10-17T11:43:00.067Z,101773.00
2022-10-17T11:45:32.425Z,101773.91
2022-10-17T11:48:06.748Z,101781.47
2022-10-17T11:53:29.991Z,101803.69
2022-10-17T11:56:00.473Z,101806.03
2022-10-17T11:58:39.149Z,101811.66
2022-10-17T12:01:33.446Z,101812.91
2022-10-17T12:04:42.791Z,101818.22
2022-10-17T12:07:25.151Z,101827.47
2022-10-17T12:10:04.107Z,101831.50
2022-10-17T12:12:34.351Z,101828.06
2022-10-17T12:15:13.378Z,101830.09
2022-10-17T12:17:46.616Z,101832.84
2022-10-17T12:20:25.286Z,101825.94
2022-10-17T12:23:04.356Z,101830.31
2022-10-17T12:25:34.597Z,101830.94
2022-10-17T12:28:07.348Z,101837.84
2022-10-17T12:30:34.951Z,101839.03
2022-10-17T12:33:06.642Z,101840.31
2022-10-17T12:35:36.077Z,101848.47
2022-10-17T12:38:16.268Z,101847.31
2022-10-17T12:40:48.424Z,101851.34
2022-10-17T12:43:15.650Z,101841.75
2022-10-17T12:45:53.749Z,101847.50
2022-10-17T12:48:40.707Z,101856.25
2022-10-17T12:51:34.739Z,101851.94
2022-10-17T12:54:09.509Z,101857.44
2022-10-17T12:56:47.770Z,101861.22
2022-10-17T12:59:21.747Z,101860.50
2022-10-17T13:01:53.537Z,101864.09
2022-10-17T13:04:21.326Z,101868.38
2022-10-17T13:06:57.264Z,101869.53
2022-10-17T13:09:33.293Z,101870.34
2022-10-17T13:12:03.738Z,101876.78
2022-10-17T13:14:33.054Z,101882.53
2022-10-17T13:17:02.377Z,101880.50
2022-10-17T13:19:31.951Z,101871.69
2022-10-17T13:22:07.066Z,101872.09
2022-10-17T13:24:39.976Z,101878.69
2022-10-17T13:27:29.553Z,101883.34
2022-10-17T13:29:58.425Z,101885.00
2022-10-17T13:32:27.154Z,101892.44
2022-10-17T13:35:09.103Z,101897.91
2022-10-17T13:37:37.245Z,101899.34
2022-10-17T13:40:17.561Z,101904.56
2022-10-17T13:42:52.890Z,101906.31
2022-10-17T13:45:27.338Z,101908.41
2022-10-17T13:47:54.998Z,101904.50
2022-10-17T13:50:44.140Z,101909.31
2022-10-17T13:53:17.809Z,101906.94
2022-10-17T13:56:09.555Z,101915.94
2022-10-17T13:59:15.557Z,101918.53
2022-10-17T14:01:42.575Z,101921.78
2022-10-17T14:04:19.267Z,101928.44
2022-10-17T14:06:51.232Z,101932.59
2022-10-17T14:09:26.483Z,101933.00
2022-10-17T14:12:20.896Z,101932.53
2022-10-17T14:15:09.804Z,101940.66
2022-10-17T14:17:38.604Z,101938.81
2022-10-17T14:20:40.761Z,101940.59
2022-10-17T14:23:21.413Z,101945.41
2022-10-17T14:25:46.843Z,101950.34
2022-10-17T14:28:16.919Z,101954.78
2022-10-17T14:30:56.785Z,101951.28
2022-10-17T14:33:30.680Z,101958.09
2022-10-17T14:36:00.113Z,101970.22
2022-10-17T14:38:28.802Z,101963.41
2022-10-17T14:41:23.611Z,101976.25
2022-10-17T14:43:58.098Z,101984.09
2022-10-17T14:46:25.785Z,101986.19
2022-10-17T14:49:05.028Z,101987.66
2022-10-17T14:51:40.224Z,101997.75
2022-10-17T14:54:25.957Z,101998.84
2022-10-17T14:56:54.383Z,101995.34
2022-10-17T14:59:51.731Z,101991.09
2022-10-17T15:02:12.008Z,101985.69
2022-10-17T15:04:38.836Z,101980.75
2022-10-17T15:07:06.172Z,101982.34
2022-10-17T15:09:33.037Z,101981.75
2022-10-17T15:12:02.563Z,101983.19
2022-10-17T15:14:29.458Z,101976.47
2022-10-17T15:16:56.366Z,101981.56
2022-10-17T15:19:23.238Z,101983.22
2022-10-17T15:21:50.083Z,101982.25
2022-10-17T15:24:16.944Z,101983.16
2022-10-17T15:26:43.872Z,101990.78
2022-10-17T15:29:15.409Z,101987.44
2022-10-17T15:31:42.285Z,101990.03
2022-10-17T15:34:09.236Z,101989.59
2022-10-17T15:36:41.189Z,101990.47
2022-10-17T15:39:09.844Z,101999.16
2022-10-17T15:41:36.648Z,101996.66
2022-10-17T15:44:03.903Z,101993.69
2022-10-17T15:46:33.931Z,101991.81
2022-10-17T15:49:12.327Z,101984.66
2022-10-17T15:51:39.263Z,101993.56
2022-10-17T15:54:06.640Z,101989.09
2022-10-17T15:56:40.275Z,101997.84
2022-10-17T15:59:17.954Z,102004.50
2022-10-17T16:01:45.128Z,102020.94
2022-10-17T16:04:15.086Z,102009.09
2022-10-17T16:06:42.831Z,102026.34
2022-10-17T16:09:10.172Z,102029.28
2022-10-17T16:11:40.943Z,102023.78
2022-10-17T16:14:12.586Z,102032.91
2022-10-17T16:16:39.949Z,102048.19
2022-10-17T16:19:07.309Z,102053.72
2022-10-17T16:21:37.174Z,102057.09
2022-10-17T16:24:04.806Z,102055.00
2022-10-17T16:26:32.156Z,102065.94
2022-10-17T16:29:02.739Z,102066.91
2022-10-17T16:31:40.220Z,102070.84
2022-10-17T16:34:08.883Z,102081.44
2022-10-17T16:36:35.710Z,102087.28
2022-10-17T16:39:02.722Z,102087.56
2022-10-17T16:41:32.621Z,102097.72
2022-10-17T16:44:02.266Z,102098.13
2022-10-17T16:46:30.992Z,102092.41
2022-10-17T16:48:58.391Z,102102.25
2022-10-17T16:51:25.850Z,102101.22
2022-10-17T16:53:54.476Z,102105.34
2022-10-17T16:56:23.050Z,102101.38
2022-10-17T16:58:50.629Z,102108.94
2022-10-17T17:01:20.213Z,102107.47
2022-10-17T17:03:47.812Z,102101.59
2022-10-17T17:06:20.756Z,102105.63
2022-10-17T17:08:47.832Z,102108.94
2022-10-17T17:11:17.435Z,102106.22
2022-10-17T17:13:44.675Z,102112.50
2022-10-17T17:16:14.154Z,102113.63
2022-10-17T17:18:41.738Z,102115.75
2022-10-17T17:21:10.205Z,102114.44
2022-10-17T17:23:39.727Z,102117.34
2022-10-17T17:26:15.686Z,102116.00
2022-10-17T17:28:43.176Z,102127.66
2022-10-17T17:31:18.117Z,102128.56
2022-10-17T17:33:46.824Z,102122.38
2022-10-17T17:36:19.160Z,102120.31
2022-10-17T17:38:47.234Z,102127.81
2022-10-17T17:41:16.329Z,102131.78
2022-10-17T17:43:45.162Z,102131.75
2022-10-17T17:46:13.421Z,102131.13
2022-10-17T17:48:41.671Z,102145.03
2022-10-17T17:51:11.733Z,102139.16
2022-10-17T17:53:39.595Z,102147.91
2022-10-17T17:56:10.142Z,102150.00
2022-10-17T17:58:37.443Z,102153.53
2022-10-17T18:01:18.097Z,102166.81
2022-10-17T18:03:45.573Z,102158.66
2022-10-17T18:06:13.202Z,102166.06
2022-10-17T18:08:40.101Z,102165.69
2022-10-17T18:11:06.970Z,102172.34
2022-10-17T18:13:33.862Z,102169.44
2022-10-17T18:16:02.126Z,102169.09
2022-10-17T18:18:30.537Z,102175.91
2022-10-17T18:21:01.301Z,102172.78
2022-10-17T18:23:28.101Z,102175.63
2022-10-17T18:26:01.055Z,102180.47
2022-10-17T18:28:28.187Z,102178.75
2022-10-17T18:30:55.287Z,102173.34
2022-10-17T18:33:22.240Z,102189.19
2022-10-17T18:35:49.114Z,102203.44
2022-10-17T18:38:16.023Z,102203.56
2022-10-17T18:40:45.030Z,102208.28
2022-10-17T18:43:14.114Z,102209.19
2022-10-17T18:45:40.963Z,102205.34
2022-10-17T18:48:09.939Z,102220.56
2022-10-17T18:50:39.314Z,102229.44
2022-10-17T18:53:06.178Z,102232.53
2022-10-17T18:55:33.229Z,102235.31
2022-10-17T18:58:00.724Z,102237.59
2022-10-17T19:00:27.575Z,102242.81
2022-10-17T19:02:54.396Z,102253.00
2022-10-17T19:05:21.323Z,102262.09
2022-10-17T19:07:48.178Z,102262.97
2022-10-17T19:10:14.995Z,102260.81
2022-10-17T19:12:41.834Z,102262.59
2022-10-17T19:15:09.268Z,102268.28
2022-10-17T19:17:36.061Z,102263.84
2022-10-17T19:20:02.979Z,102262.28
2022-10-17T19:22:31.280Z,102265.16
2022-10-17T19:24:58.030Z,102262.41
2022-10-17T19:27:24.854Z,102265.66
2022-10-17T19:29:51.672Z,102270.03
2022-10-17T19:32:20.747Z,102269.09
2022-10-17T19:34:49.858Z,102279.81
2022-10-17T19:37:16.905Z,102277.69
2022-10-17T19:39:43.722Z,102277.59
2022-10-17T19:42:10.962Z,102285.78
2022-10-17T19:44:38.094Z,102288.41
2022-10-17T19:47:04.915Z,102295.34
2022-10-17T19:49:31.732Z,102298.81
2022-10-17T19:51:58.921Z,102300.94
2022-10-17T19:54:25.705Z,102299.16
2022-10-17T19:56:52.580Z,102299.38
2022-10-17T19:59:19.568Z,102302.09
2022-10-17T20:01:46.510Z,102309.25
2022-10-17T20:04:13.729Z,102312.81
2022-10-17T20:06:41.720Z,102312.38
2022-10-17T20:09:12.423Z,102325.91
2022-10-17T20:11:42.860Z,102315.94
2022-10-17T20:14:09.694Z,102316.97
2022-10-17T20:16:37.098Z,102327.41
2022-10-17T20:19:10.263Z,102327.16
2022-10-17T20:21:39.609Z,102338.09
2022-10-17T20:24:09.782Z,102333.09
2022-10-17T20:26:38.772Z,102329.22
2022-10-17T20:29:11.712Z,102345.56
2022-10-17T20:31:39.589Z,102361.00
2022-10-17T20:34:06.558Z,102358.44
2022-10-17T20:36:37.424Z,102361.38
2022-10-17T20:39:05.672Z,102358.47
2022-10-17T20:41:32.702Z,102362.44
2022-10-17T20:43:59.519Z,102365.50
2022-10-17T20:49:16.448Z,102372.44
2022-10-17T20:51:44.072Z,102368.13
2022-10-17T20:54:11.785Z,102368.38
2022-10-17T20:56:38.802Z,102373.28
2022-10-17T20:59:10.496Z,102374.09
2022-10-17T21:01:37.454Z,102371.44
2022-10-17T21:06:53.459Z,102374.84
2022-10-17T21:09:20.879Z,102370.16
2022-10-17T21:11:51.239Z,102376.72
2022-10-17T21:14:18.797Z,102385.56
2022-10-17T21:16:45.592Z,102389.19
2022-10-17T21:19:12.746Z,102392.47
2022-10-17T21:21:43.534Z,102400.06
2022-10-17T21:24:14.275Z,102395.66
2022-10-17T21:26:42.865Z,102395.16
2022-10-17T21:29:11.707Z,102400.78
2022-10-17T21:31:40.973Z,102402.25
2022-10-17T21:34:10.717Z,102401.13
2022-10-17T21:36:37.578Z,102406.63
2022-10-17T21:39:05.419Z,102415.03
2022-10-17T21:41:32.729Z,102418.44
2022-10-17T21:44:07.188Z,102416.69
2022-10-17T21:46:34.382Z,102411.75
2022-10-17T21:49:01.469Z,102412.19
2022-10-17T21:51:28.686Z,102409.28
2022-10-17T21:53:56.972Z,102416.06
2022-10-17T21:56:28.175Z,102412.47
2022-10-17T21:58:56.560Z,102416.00
2022-10-17T22:01:29.034Z,102416.56
2022-10-17T22:03:58.276Z,102407.00
2022-10-17T22:06:43.247Z,102413.69
2022-10-17T22:09:17.247Z,102415.66
2022-10-17T22:11:49.018Z,102410.22
2022-10-17T22:14:17.757Z,102409.88
2022-10-17T22:16:46.405Z,102408.00
2022-10-17T22:19:17.419Z,102408.25
2022-10-17T22:21:44.511Z,102405.47
2022-10-17T22:24:13.693Z,102415.69
2022-10-17T22:26:40.902Z,102423.06
2022-10-17T22:29:08.918Z,102432.31
2022-10-17T22:31:36.787Z,102427.22
2022-10-17T22:34:05.532Z,102431.81
2022-10-17T22:36:33.674Z,102423.38
2022-10-17T22:39:00.515Z,102425.91
2022-10-17T22:41:27.318Z,102419.81
2022-10-17T22:43:54.106Z,102419.09
2022-10-17T22:46:20.881Z,102419.31
2022-10-17T22:48:47.648Z,102434.34
2022-10-17T22:51:15.022Z,102425.72
2022-10-17T22:53:42.007Z,102424.31
2022-10-17T22:56:17.851Z,102426.03
2022-10-17T22:58:45.317Z,102420.72
2022-10-17T23:01:18.677Z,102419.31
2022-10-17T23:03:45.514Z,102417.53
2022-10-17T23:06:12.869Z,102426.81
2022-10-17T23:08:40.134Z,102424.25
2022-10-17T23:11:07.478Z,102413.44
2022-10-17T23:13:35.008Z,102416.50
2022-10-17T23:16:02.023Z,102416.31
2022-10-17T23:18:28.807Z,102413.69
2022-10-17T23:20:55.650Z,102418.31
2022-10-17T23:23:23.050Z,102412.69
2022-10-17T23:25:50.534Z,102411.19
2022-10-17T23:28:17.685Z,102416.69
2022-10-17T23:30:44.885Z,102417.09
2022-10-17T23:33:13.582Z,102419.31
2022-10-17T23:35:40.629Z,102413.00
2022-10-17T23:38:07.444Z,102413.69
2022-10-17T23:40:35.373Z,102421.53
2022-10-17T23:43:02.918Z,102422.31
2022-10-17T23:45:33.422Z,102422.81
2022-10-17T23:48:03.045Z,102423.13
2022-10-17T23:50:29.789Z,102432.91
2022-10-17T23:52:56.525Z,102424.53
2022-10-17T23:55:23.357Z,102420.09
2022-10-17T23:57:50.170Z,102427.94
